Time;durP1;ratioP1;P1;durP2;ratioP2;P2;SDS_P1;SDS_P2;PMS_P1;PMS_P2;Temp;Humidity;BMP_temperature;BMP_pressure;BME280_temperature;BME280_humidity;BME280_pressure;Samples;Min_cycle;Max_cycle;Signal;HPM_P1;HPM_P2
2023/04/05 00:01:00;;;;;;;5.27;1.70;;;0.30;96.40;-0.10;101341.00;;;;4966237;28;103501;-63
2023/04/05 00:03:25;;;;;;;2.93;1.60;;;0.30;96.80;-0.20;101335.00;;;;4959539;28;83712;-63
2023/04/05 00:05:53;;;;;;;6.27;1.67;;;0.20;97.20;-0.30;101329.00;;;;4955929;28;107971;-63
2023/04/05 00:08:27;;;;;;;2.33;1.83;;;0.10;97.50;-0.30;101322.00;;;;4957744;28;83677;-64
2023/04/05 00:10:53;;;;;;;1.97;1.33;;;0.10;97.80;-0.30;101330.00;;;;4952264;28;83633;-63
2023/04/05 00:13:19;;;;;;;7.20;1.60;;;1.00;98.30;-0.40;101318.00;;;;4956422;28;82743;-63
2023/04/05 00:15:47;;;;;;;3.53;2.10;;;0.00;98.30;-0.50;101328.00;;;;4953892;28;102663;-62
2023/04/05 00:18:22;;;;;;;3.63;2.20;;;-0.10;98.50;-0.50;101319.00;;;;4968973;28;83630;-64
2023/04/05 00:20:56;;;;;;;3.13;1.67;;;0.00;98.80;-0.60;101317.00;;;;4953822;28;83319;-64
2023/04/05 00:23:25;;;;;;;4.57;1.80;;;-0.10;99.00;-0.60;101320.00;;;;4958110;28;109137;-63
2023/04/05 00:25:50;;;;;;;2.27;1.93;;;-0.20;99.20;-0.60;101310.00;;;;4956801;28;82629;-64
2023/04/05 00:28:16;;;;;;;3.37;1.70;;;-0.30;99.40;-0.70;101314.00;;;;4955749;28;113432;-63
2023/04/05 00:30:42;;;;;;;2.20;2.00;;;-0.30;99.60;-0.70;101308.00;;;;4956654;28;83678;-64
2023/04/05 00:33:08;;;;;;;3.53;1.67;;;-0.30;99.80;-0.70;101303.00;;;;4955202;28;101957;-62
2023/04/05 00:35:33;;;;;;;3.17;1.57;;;-0.30;99.90;-0.70;101314.00;;;;4953035;28;106378;-63
2023/04/05 00:37:59;;;;;;;2.83;1.60;;;-0.30;99.90;-0.70;101324.00;;;;4969034;28;94987;-63
2023/04/05 00:40:25;;;;;;;4.03;2.40;;;-0.30;99.90;-0.70;101308.00;;;;4957051;28;83478;-61
2023/04/05 00:42:51;;;;;;;4.30;1.57;;;-0.30;99.90;-0.70;101303.00;;;;4958170;28;82842;-63
2023/04/05 00:45:17;;;;;;;1.50;1.33;;;-0.30;99.90;-0.70;101310.00;;;;4951526;28;107340;-63
2023/04/05 00:47:44;;;;;;;2.87;1.47;;;-0.40;99.90;-0.70;101301.00;;;;4955517;28;111996;-63
2023/04/05 00:50:11;;;;;;;2.40;1.60;;;-0.30;99.90;-0.80;101299.00;;;;4959812;28;83653;-62
2023/04/05 00:52:36;;;;;;;4.80;1.43;;;-0.40;99.90;-0.70;101302.00;;;;4974054;28;84916;-64
2023/04/05 00:55:07;;;;;;;2.00;1.80;;;-0.40;99.90;-0.70;101301.00;;;;4979314;28;82963;-63
2023/04/05 00:57:37;;;;;;;3.90;2.67;;;-0.40;99.90;-0.70;101303.00;;;;4962481;28;82977;-63
2023/04/05 01:00:10;;;;;;;4.00;1.93;;;-0.30;99.90;-0.70;101302.00;;;;4978245;28;83431;-63
2023/04/05 01:02:47;;;;;;;4.73;2.10;;;-0.30;99.90;-0.70;101308.00;;;;4975235;28;82714;-63
2023/04/05 01:05:38;;;;;;;2.63;2.27;;;-0.30;99.90;-0.70;101299.00;;;;4975480;28;82747;-62
2023/04/05 01:08:39;;;;;;;4.03;2.97;;;-0.20;99.90;-0.60;101294.00;;;;4963993;28;83304;-63
2023/04/05 01:11:07;;;;;;;2.73;2.20;;;-0.20;99.90;-0.50;101295.00;;;;4963583;28;104135;-63
2023/04/05 01:13:32;;;;;;;6.07;2.90;;;-0.20;99.90;-0.50;101294.00;;;;4958418;28;109615;-64
2023/04/05 01:15:58;;;;;;;6.97;2.93;;;-0.10;99.90;-0.40;101295.00;;;;4985550;28;82931;-63
2023/04/05 01:18:25;;;;;;;4.23;2.57;;;-0.10;99.90;-0.40;101286.00;;;;4972640;28;113558;-63
2023/04/05 01:21:19;;;;;;;6.30;3.40;;;0.90;99.90;-0.40;101286.00;;;;4958673;28;104424;-63
2023/04/05 01:24:01;;;;;;;3.47;1.93;;;0.00;99.90;-0.40;101287.00;;;;4961022;28;82885;-63
2023/04/05 01:26:56;;;;;;;8.93;2.30;;;0.00;99.90;-0.40;101279.00;;;;4962052;28;101018;-63
2023/04/05 01:30:03;;;;;;;2.07;1.80;;;0.00;99.90;-0.40;101279.00;;;;4960630;28;82944;-63
2023/04/05 01:33:22;;;;;;;4.33;1.90;;;-0.10;99.90;-0.40;101276.00;;;;4973054;28;82938;-63
2023/04/05 01:36:05;;;;;;;1.73;1.63;;;0.00;99.90;-0.40;101271.00;;;;4878081;28;82851;-62
2023/04/05 01:38:34;;;;;;;2.03;1.83;;;0.00;99.90;-0.40;101277.00;;;;4882065;28;98304;-63
2023/04/05 01:41:00;;;;;;;2.07;1.60;;;0.00;99.90;-0.50;101268.00;;;;4926941;28;83642;-62
2023/04/05 01:43:26;;;;;;;2.00;1.67;;;-0.20;99.90;-0.50;101273.00;;;;4960285;28;112319;-63
2023/04/05 01:45:51;;;;;;;5.20;1.63;;;-0.70;99.90;-0.60;101266.00;;;;4974862;28;84268;-62
2023/04/05 01:48:17;;;;;;;4.07;1.97;;;-0.20;99.90;-0.70;101273.00;;;;4974276;28;108229;-64
2023/04/05 01:50:43;;;;;;;2.13;1.83;;;-0.30;99.90;-0.70;101274.00;;;;4970386;28;113371;-62
2023/04/05 01:53:09;;;;;;;2.70;1.90;;;-0.20;99.90;-0.70;101269.00;;;;4983260;28;103651;-65
2023/04/05 01:55:34;;;;;;;2.80;1.70;;;-0.40;99.90;-0.80;101266.00;;;;4974601;28;82771;-64
2023/04/05 01:58:00;;;;;;;1.83;1.50;;;-0.50;99.90;-0.80;101263.00;;;;4975234;28;82991;-63
2023/04/05 02:00:26;;;;;;;3.10;1.60;;;-0.50;99.90;-0.90;101266.00;;;;4971038;28;101723;-64
2023/04/05 02:02:52;;;;;;;1.83;1.67;;;-0.50;99.90;-0.90;101254.00;;;;4978845;28;83365;-64
2023/04/05 02:05:18;;;;;;;1.80;1.40;;;-0.50;99.90;-1.00;101262.00;;;;4973797;28;109460;-63
2023/04/05 02:07:43;;;;;;;2.40;1.87;;;-0.60;99.90;-1.00;101252.00;;;;4972025;28;109927;-64
2023/04/05 02:10:09;;;;;;;2.43;2.10;;;-0.50;99.90;-1.10;101260.00;;;;4973773;28;102969;-65
2023/04/05 02:12:35;;;;;;;4.40;2.17;;;-0.50;99.90;-1.10;101258.00;;;;4979289;28;83159;-63
2023/04/05 02:15:01;;;;;;;2.47;1.90;;;-0.70;99.90;-1.10;101263.00;;;;4972818;28;109864;-64
2023/04/05 02:17:32;;;;;;;4.10;1.80;;;-0.90;99.90;-1.20;101260.00;;;;4976304;28;107258;-64
2023/04/05 02:20:01;;;;;;;2.87;2.20;;;-0.80;99.90;-1.20;101258.00;;;;4973936;28;83711;-65
2023/04/05 02:22:28;;;;;;;4.27;2.30;;;-0.80;99.90;-1.20;101264.00;;;;4969907;28;83432;-63
2023/04/05 02:24:54;;;;;;;2.33;2.13;;;-0.70;99.90;-1.20;101258.00;;;;4974379;28;82869;-64
2023/04/05 02:27:20;;;;;;;6.50;2.20;;;-0.80;99.90;-1.20;101259.00;;;;4974235;28;81977;-64
2023/04/05 02:29:45;;;;;;;5.00;2.73;;;-0.80;99.90;-1.20;101251.00;;;;4984820;28;114350;-64
2023/04/05 02:32:11;;;;;;;4.60;2.00;;;-0.70;99.90;-1.10;101251.00;;;;4969223;28;82933;-64
2023/04/05 02:34:40;;;;;;;4.47;2.27;;;-0.80;99.90;-1.10;101249.00;;;;4971261;28;109841;-63
2023/04/05 02:37:06;;;;;;;2.10;1.60;;;-0.70;99.90;-1.10;101254.00;;;;4973243;28;82598;-64
2023/04/05 02:39:31;;;;;;;4.37;2.37;;;-0.70;99.90;-1.10;101257.00;;;;4973297;28;87202;-64
2023/04/05 02:41:58;;;;;;;2.33;1.73;;;-0.80;99.90;-1.00;101246.00;;;;4970835;28;111762;-63
2023/04/05 02:44:24;;;;;;;1.90;1.80;;;-0.70;99.90;-1.00;101253.00;;;;4972257;28;82746;-64
2023/04/05 02:46:50;;;;;;;3.77;2.13;;;-0.70;99.90;-1.00;101260.00;;;;4971778;28;83001;-64
2023/04/05 02:49:15;;;;;;;3.07;1.70;;;-0.50;99.90;-1.00;101236.00;;;;4982881;28;103915;-63
2023/04/05 02:51:41;;;;;;;3.17;2.10;;;-0.50;99.90;-1.00;101243.00;;;;4973902;28;102679;-63
2023/04/05 02:54:08;;;;;;;2.97;2.00;;;-0.60;99.90;-1.00;101245.00;;;;4968448;28;82845;-64
2023/04/05 02:56:33;;;;;;;2.07;1.87;;;-0.60;99.90;-1.00;101250.00;;;;4969855;28;109386;-64
2023/04/05 02:58:59;;;;;;;3.43;2.20;;;-0.70;99.90;-1.00;101244.00;;;;4974636;28;112882;-64
2023/04/05 03:01:25;;;;;;;1.83;1.70;;;-0.60;99.90;-1.10;101243.00;;;;4971716;28;112832;-64
2023/04/05 03:03:51;;;;;;;3.37;2.13;;;-0.70;99.90;-1.20;101241.00;;;;4973407;28;82669;-65
2023/04/05 03:06:17;;;;;;;3.13;2.20;;;-0.70;99.90;-1.20;101239.00;;;;4972966;28;96001;-64
2023/04/05 03:08:43;;;;;;;3.33;2.03;;;-0.80;99.90;-1.30;101239.00;;;;4978075;28;83528;-64
2023/04/05 03:11:10;;;;;;;2.07;1.50;;;-0.80;99.90;-1.30;101229.00;;;;4973062;28;83847;-64
2023/04/05 03:13:36;;;;;;;3.83;2.00;;;-0.90;99.90;-1.40;101221.00;;;;4971337;28;95650;-63
2023/04/05 03:16:02;;;;;;;3.40;2.10;;;-0.90;99.90;-1.50;101232.00;;;;4973332;28;107818;-64
2023/04/05 03:18:28;;;;;;;4.33;3.20;;;-0.70;99.90;-1.60;101225.00;;;;4968721;28;107003;-64
2023/04/05 03:20:56;;;;;;;5.87;3.43;;;-1.00;99.90;-1.70;101222.00;;;;4971108;28;95603;-63
2023/04/05 03:23:27;;;;;;;5.17;2.77;;;-1.20;99.90;-1.70;101224.00;;;;4970607;28;83749;-63
2023/04/05 03:26:03;;;;;;;3.53;2.30;;;-1.10;99.90;-1.80;101220.00;;;;4986442;28;82528;-64
2023/04/05 03:28:33;;;;;;;2.73;1.80;;;-1.40;99.90;-1.90;101216.00;;;;4966740;28;104672;-63
2023/04/05 03:30:59;;;;;;;3.57;2.20;;;-1.50;99.90;-1.90;101219.00;;;;4970884;28;83738;-64
2023/04/05 03:33:24;;;;;;;4.53;2.07;;;-1.50;99.90;-2.00;101228.00;;;;4971047;28;111583;-64
2023/04/05 03:35:50;;;;;;;3.13;2.50;;;-1.50;99.90;-2.10;101223.00;;;;4974722;28;82873;-64
2023/04/05 03:38:16;;;;;;;2.50;2.30;;;-1.60;99.90;-2.10;101229.00;;;;4973890;28;111547;-64
2023/04/05 03:40:42;;;;;;;5.20;2.37;;;-1.60;99.90;-2.20;101227.00;;;;4969803;28;111410;-64
2023/04/05 03:43:08;;;;;;;2.83;1.83;;;-1.70;99.90;-2.20;101216.00;;;;4973052;28;82705;-62
2023/04/05 03:45:34;;;;;;;3.97;2.30;;;-1.80;99.90;-2.30;101225.00;;;;4984218;28;109179;-62
2023/04/05 03:47:59;;;;;;;3.27;2.10;;;-1.80;99.90;-2.30;101221.00;;;;4961019;28;94238;-62
2023/04/05 03:50:25;;;;;;;4.67;2.17;;;-1.80;99.90;-2.30;101235.00;;;;4968296;28;86472;-63
2023/04/05 03:52:52;;;;;;;3.93;2.27;;;-1.80;99.90;-2.40;101213.00;;;;4968984;28;83876;-63
2023/04/05 03:55:18;;;;;;;4.23;2.80;;;-1.90;99.90;-2.40;101232.00;;;;4974211;28;108211;-63
2023/04/05 03:57:44;;;;;;;3.17;2.57;;;-1.90;99.90;-2.40;101236.00;;;;4975851;28;82932;-63
2023/04/05 04:00:13;;;;;;;4.60;2.77;;;-1.90;99.90;-2.40;101228.00;;;;4977874;28;83403;-65
2023/04/05 04:02:48;;;;;;;3.63;2.70;;;-1.90;99.90;-2.40;101240.00;;;;4979802;28;82596;-64
2023/04/05 04:05:16;;;;;;;3.20;2.33;;;-2.00;99.90;-2.40;101235.00;;;;4977687;28;81900;-64
2023/04/05 04:07:43;;;;;;;2.90;2.37;;;-1.90;99.90;-2.40;101225.00;;;;4975713;28;83764;-64
2023/04/05 04:10:13;;;;;;;2.47;2.23;;;-2.00;99.90;-2.40;101232.00;;;;4974059;28;111978;-63
2023/04/05 04:12:57;;;;;;;5.13;3.17;;;-2.00;99.90;-2.50;101232.00;;;;4975120;28;83699;-64
2023/04/05 04:15:22;;;;;;;5.03;2.53;;;-2.00;99.90;-2.50;101236.00;;;;4976167;28;90531;-65
2023/04/05 04:17:48;;;;;;;2.77;2.47;;;-2.00;99.90;-2.50;101244.00;;;;4973744;28;82847;-64
2023/04/05 04:20:14;;;;;;;5.40;2.23;;;-2.00;99.90;-2.50;101234.00;;;;4973321;28;111412;-64
2023/04/05 04:22:39;;;;;;;4.97;3.23;;;-2.10;99.90;-2.50;101238.00;;;;4987221;28;109068;-64
2023/04/05 04:25:10;;;;;;;5.33;2.40;;;-2.10;99.90;-2.60;101236.00;;;;4975068;28;109598;-65
2023/04/05 04:27:41;;;;;;;4.10;2.63;;;-2.10;99.90;-2.60;101235.00;;;;4971964;28;83001;-63
2023/04/05 04:30:10;;;;;;;6.27;2.57;;;-2.00;99.90;-2.60;101247.00;;;;4975401;28;84344;-64
2023/04/05 04:32:50;;;;;;;5.37;2.90;;;-2.10;99.90;-2.60;101242.00;;;;4976138;28;82880;-64
2023/04/05 04:35:23;;;;;;;6.27;3.10;;;-1.70;99.90;-2.60;101231.00;;;;4977444;28;82771;-64
2023/04/05 04:38:04;;;;;;;6.27;2.97;;;-2.10;99.90;-2.60;101241.00;;;;4976607;28;84849;-65
2023/04/05 04:40:38;;;;;;;4.37;2.73;;;-2.20;99.90;-2.60;101241.00;;;;4979362;28;83952;-66
2023/04/05 04:43:17;;;;;;;6.27;2.73;;;-2.20;99.90;-2.60;101234.00;;;;4974624;28;82591;-64
2023/04/05 04:45:47;;;;;;;4.40;2.83;;;-2.20;99.90;-2.70;101232.00;;;;4974057;28;82714;-64
2023/04/05 04:48:15;;;;;;;2.60;2.37;;;-2.30;99.90;-2.70;101230.00;;;;4973453;28;83145;-64
2023/04/05 04:50:42;;;;;;;5.90;3.10;;;-2.20;99.90;-2.70;101227.00;;;;4972557;28;83096;-63
2023/04/05 04:53:08;;;;;;;3.03;2.73;;;-2.20;99.90;-2.70;101224.00;;;;4974796;28;82726;-65
2023/04/05 04:55:35;;;;;;;4.97;2.50;;;-2.30;99.90;-2.70;101240.00;;;;4953993;28;82263;-63
2023/04/05 04:58:09;;;;;;;3.87;2.50;;;-2.20;99.90;-2.80;101236.00;;;;4975528;28;83164;-65
2023/04/05 05:00:38;;;;;;;6.03;2.37;;;-2.30;99.90;-2.80;101238.00;;;;4982409;28;82882;-64
2023/04/05 05:03:03;;;;;;;3.20;2.50;;;-2.30;99.90;-2.70;101241.00;;;;4968546;28;99035;-64
2023/04/05 05:05:29;;;;;;;2.87;2.30;;;-2.40;99.90;-2.70;101235.00;;;;4966349;28;109848;-64
2023/04/05 05:07:55;;;;;;;5.57;2.53;;;-2.30;99.90;-2.70;101239.00;;;;4968691;28;112051;-63
2023/04/05 05:10:20;;;;;;;5.47;2.63;;;-2.20;99.90;-2.70;101239.00;;;;4971239;28;112466;-64
2023/04/05 05:12:47;;;;;;;4.10;2.33;;;-2.30;99.90;-2.60;101246.00;;;;4973665;28;82663;-65
2023/04/05 05:15:13;;;;;;;2.80;2.53;;;-2.20;99.90;-2.60;101241.00;;;;4970241;28;82721;-64
2023/04/05 05:17:39;;;;;;;3.57;2.33;;;-2.20;99.90;-2.60;101241.00;;;;4974207;28;112798;-64
2023/04/05 05:20:09;;;;;;;4.63;2.53;;;-2.20;99.90;-2.50;101240.00;;;;4979122;28;83324;-64
2023/04/05 05:22:36;;;;;;;3.23;2.87;;;-2.20;99.90;-2.50;101233.00;;;;4972074;28;82716;-64
2023/04/05 05:25:04;;;;;;;4.23;2.30;;;-2.00;99.90;-2.50;101234.00;;;;4970423;28;82740;-65
2023/04/05 05:27:30;;;;;;;4.50;2.60;;;-2.00;99.90;-2.40;101235.00;;;;4970852;28;85184;-64
2023/04/05 05:29:56;;;;;;;5.63;2.80;;;-1.90;99.90;-2.40;101240.00;;;;4962502;28;100985;-64
2023/04/05 05:32:22;;;;;;;2.90;2.63;;;-1.70;99.90;-2.30;101234.00;;;;4967743;28;111624;-65
2023/04/05 05:34:48;;;;;;;7.20;2.70;;;-1.90;99.90;-2.30;101248.00;;;;4971693;28;108447;-64
2023/04/05 05:37:15;;;;;;;4.87;3.33;;;-1.90;99.90;-2.20;101253.00;;;;4982043;28;111148;-64
2023/04/05 05:39:41;;;;;;;4.83;2.70;;;-1.80;99.90;-2.10;101251.00;;;;4967750;27;82868;-65
2023/04/05 05:42:06;;;;;;;5.97;3.20;;;-1.70;99.90;-2.00;101247.00;;;;4953190;28;109834;-63
2023/04/05 05:44:32;;;;;;;3.37;2.80;;;-1.60;99.90;-1.90;101252.00;;;;4972210;28;109333;-63
2023/04/05 05:46:58;;;;;;;4.70;2.90;;;-1.50;99.90;-1.80;101246.00;;;;4972785;28;82974;-63
2023/04/05 05:49:24;;;;;;;2.97;2.50;;;-1.40;99.90;-1.60;101259.00;;;;4968158;28;106534;-65
2023/04/05 05:51:51;;;;;;;2.70;2.50;;;-0.90;99.90;-1.50;101246.00;;;;4964738;28;84151;-64
2023/04/05 05:54:17;;;;;;;2.93;2.37;;;-1.20;99.90;-1.30;101246.00;;;;4968654;28;82754;-63
2023/04/05 05:56:43;;;;;;;4.07;3.33;;;-0.90;99.90;-1.10;101249.00;;;;4980235;28;103356;-63
2023/04/05 05:59:09;;;;;;;6.43;2.83;;;-0.80;99.90;-1.00;101236.00;;;;4968766;28;83817;-63
2023/04/05 06:01:41;;;;;;;2.73;2.33;;;-0.60;99.90;-0.80;101242.00;;;;4967511;28;82864;-64
2023/04/05 06:04:09;;;;;;;3.23;2.70;;;-0.50;99.90;-0.60;101245.00;;;;4970772;28;83326;-62
2023/04/05 06:06:35;;;;;;;4.17;2.70;;;-0.30;99.90;-0.40;101234.00;;;;4969419;28;83687;-63
2023/04/05 06:09:01;;;;;;;4.50;2.57;;;-0.10;99.90;-0.20;101236.00;;;;4969875;28;82081;-62
2023/04/05 06:11:27;;;;;;;3.47;2.40;;;0.10;99.90;0.00;101234.00;;;;4971682;28;82830;-65
2023/04/05 06:13:54;;;;;;;5.53;1.97;;;0.30;99.90;0.20;101228.00;;;;4968844;28;83056;-64
2023/04/05 06:16:20;;;;;;;2.50;1.50;;;0.40;99.90;0.40;101236.00;;;;4978196;28;84425;-64
2023/04/05 06:18:46;;;;;;;2.30;1.97;;;0.60;99.90;0.60;101236.00;;;;4970296;28;84127;-64
2023/04/05 06:21:13;;;;;;;4.07;2.07;;;0.80;99.90;0.80;101247.00;;;;4971463;28;108783;-64
2023/04/05 06:23:40;;;;;;;2.13;1.43;;;1.10;99.90;1.10;101251.00;;;;4970527;28;83079;-63
2023/04/05 06:26:22;;;;;;;2.57;1.40;;;1.20;99.90;1.40;101242.00;;;;4969488;28;83525;-62
2023/04/05 06:28:48;;;;;;;2.77;1.97;;;1.60;99.90;1.70;101242.00;;;;4969721;28;83739;-64
2023/04/05 06:31:16;;;;;;;3.63;1.43;;;1.80;99.90;2.00;101248.00;;;;4972612;28;83556;-66
2023/04/05 06:33:42;;;;;;;2.30;2.03;;;2.20;99.90;2.40;101245.00;;;;4982564;28;81918;-60
2023/04/05 06:36:08;;;;;;;5.50;2.17;;;2.50;99.90;2.80;101255.00;;;;4967348;28;83478;-61
2023/04/05 06:38:34;;;;;;;1.53;1.30;;;2.90;99.90;3.10;101254.00;;;;4969592;28;82905;-65
2023/04/05 06:41:00;;;;;;;2.17;1.70;;;3.20;99.90;3.20;101263.00;;;;4969019;28;84081;-64
2023/04/05 06:43:25;;;;;;;3.97;1.60;;;3.40;99.90;3.40;101250.00;;;;4967629;28;109223;-63
2023/04/05 06:45:51;;;;;;;2.97;1.43;;;3.60;99.90;3.60;101243.00;;;;4969621;28;111586;-64
2023/04/05 06:48:17;;;;;;;1.67;1.43;;;3.80;99.90;3.70;101236.00;;;;4964200;28;110487;-64
2023/04/05 06:50:42;;;;;;;4.03;1.50;;;3.90;99.90;3.80;101241.00;;;;4967689;28;100075;-64
2023/04/05 06:53:08;;;;;;;3.80;1.37;;;3.60;99.90;3.90;101242.00;;;;4983157;28;109896;-63
2023/04/05 06:55:34;;;;;;;3.03;1.47;;;4.10;99.90;4.00;101241.00;;;;4970568;28;83052;-65
2023/04/05 06:57:59;;;;;;;1.43;1.33;;;4.30;99.90;4.10;101234.00;;;;4966764;28;82593;-64
2023/04/05 07:00:25;;;;;;;1.97;1.43;;;4.40;99.90;4.30;101242.00;;;;4968554;28;82511;-64
2023/04/05 07:02:51;;;;;;;3.50;1.80;;;4.50;99.90;4.40;101231.00;;;;4971886;28;100867;-63
2023/04/05 07:05:16;;;;;;;2.90;1.60;;;4.60;99.90;4.60;101242.00;;;;4971136;28;113617;-65
2023/04/05 07:07:44;;;;;;;3.10;2.10;;;4.80;99.90;4.70;101240.00;;;;4969635;28;83984;-63
2023/04/05 07:10:41;;;;;;;2.53;1.73;;;4.80;99.90;5.00;101241.00;;;;4970002;28;82842;-64
2023/04/05 07:13:06;;;;;;;1.70;1.20;;;5.20;99.90;5.40;101251.00;;;;4973183;28;83013;-62
2023/04/05 07:15:32;;;;;;;2.57;1.73;;;5.40;99.90;5.80;101251.00;;;;4971583;28;113998;-63
2023/04/05 07:17:58;;;;;;;2.33;1.30;;;5.90;99.90;6.30;101250.00;;;;4972696;28;83438;-64
2023/04/05 07:20:23;;;;;;;2.27;1.53;;;6.20;99.90;6.70;101265.00;;;;4969469;28;110964;-62
2023/04/05 07:22:49;;;;;;;1.67;1.10;;;7.30;99.90;7.10;101256.00;;;;4969567;28;109039;-62
2023/04/05 07:25:15;;;;;;;2.50;1.60;;;7.10;99.90;7.40;101255.00;;;;4970260;28;111579;-64
2023/04/05 07:27:40;;;;;;;2.90;1.53;;;7.50;99.90;7.80;101251.00;;;;4944835;28;83022;-63
2023/04/05 07:30:07;;;;;;;4.67;1.77;;;7.80;99.90;8.20;101247.00;;;;4982241;28;109701;-65
2023/04/05 07:32:33;;;;;;;3.70;1.53;;;8.20;99.90;8.60;101250.00;;;;4970507;28;82665;-66
2023/04/05 07:34:59;;;;;;;1.03;0.93;;;8.60;99.10;9.00;101255.00;;;;4971494;28;111856;-66
2023/04/05 07:37:26;;;;;;;1.77;1.60;;;9.00;97.90;9.40;101251.00;;;;4975894;28;82818;-67
2023/04/05 07:39:52;;;;;;;3.33;1.57;;;9.50;96.20;9.70;101255.00;;;;4972327;28;83743;-67
2023/04/05 07:42:20;;;;;;;3.43;1.20;;;9.70;95.10;9.80;101250.00;;;;4962230;28;82624;-67
2023/04/05 07:44:46;;;;;;;2.53;1.20;;;9.90;92.40;10.00;101250.00;;;;4956681;28;83074;-68
2023/04/05 07:47:11;;;;;;;0.50;0.50;;;10.10;91.50;10.20;101244.00;;;;4969203;28;103601;-67
2023/04/05 07:49:37;;;;;;;1.07;0.97;;;10.30;91.10;10.40;101248.00;;;;4982542;28;96928;-66
2023/04/05 07:52:05;;;;;;;2.20;1.43;;;10.50;90.10;10.70;101250.00;;;;4972773;28;107759;-65
2023/04/05 07:54:32;;;;;;;3.10;1.47;;;10.80;88.50;10.90;101244.00;;;;4974770;28;85303;-67
2023/04/05 07:56:59;;;;;;;1.10;1.00;;;11.00;86.70;11.20;101245.00;;;;4957076;28;82874;-66
2023/04/05 07:59:25;;;;;;;0.93;0.60;;;11.20;84.90;11.50;101243.00;;;;4974689;28;82839;-67
2023/04/05 08:01:51;;;;;;;4.10;1.17;;;11.50;82.70;11.70;101252.00;;;;4973877;28;98502;-67
2023/04/05 08:04:19;;;;;;;0.60;0.60;;;11.60;80.00;11.80;101249.00;;;;4972314;28;112678;-66
2023/04/05 08:06:46;;;;;;;1.30;0.63;;;11.90;77.70;11.90;101252.00;;;;4978053;28;83900;-66
2023/04/05 08:09:11;;;;;;;1.37;1.03;;;12.00;75.20;12.00;101245.00;;;;4977875;28;82698;-65
2023/04/05 08:11:40;;;;;;;1.50;1.33;;;12.10;73.20;12.00;101250.00;;;;4970681;28;108053;-66
2023/04/05 08:14:06;;;;;;;3.13;1.23;;;12.10;72.10;12.00;101249.00;;;;4973630;28;83299;-65
2023/04/05 08:16:32;;;;;;;1.87;1.37;;;12.10;70.80;12.00;101233.00;;;;4970617;28;113552;-65
2023/04/05 08:18:58;;;;;;;0.70;0.70;;;12.10;69.40;12.00;101239.00;;;;4966001;28;83787;-65
2023/04/05 08:21:25;;;;;;;1.60;0.97;;;12.20;69.50;12.10;101245.00;;;;4971001;28;96499;-68
2023/04/05 08:23:51;;;;;;;3.97;1.77;;;12.20;68.30;12.20;101238.00;;;;4972898;28;83614;-69
2023/04/05 08:26:16;;;;;;;3.40;1.17;;;12.30;66.70;12.20;101241.00;;;;4986156;28;102187;-69
2023/04/05 08:28:42;;;;;;;2.83;0.90;;;12.30;66.10;12.20;101250.00;;;;4969183;28;82898;-69
2023/04/05 08:31:08;;;;;;;1.57;1.03;;;12.30;64.00;12.10;101252.00;;;;4976165;28;82876;-68
2023/04/05 08:33:34;;;;;;;3.67;1.17;;;12.20;63.10;12.10;101243.00;;;;4969142;28;113374;-68
2023/04/05 08:36:05;;;;;;;2.87;1.40;;;12.20;62.70;12.20;101249.00;;;;4969352;28;83197;-64
2023/04/05 08:38:30;;;;;;;3.37;1.03;;;12.30;62.30;12.30;101241.00;;;;4971242;28;82772;-67
2023/04/05 08:41:07;;;;;;;1.60;1.20;;;12.40;62.30;12.50;101246.00;;;;4952092;28;107995;-65
2023/04/05 08:44:01;;;;;;;1.17;1.00;;;12.60;61.60;12.60;101236.00;;;;4965836;28;84103;-67
2023/04/05 08:46:33;;;;;;;1.10;0.90;;;12.60;60.50;12.70;101236.00;;;;4962912;28;85985;-66
2023/04/05 08:48:59;;;;;;;1.83;1.13;;;12.20;59.80;12.70;101229.00;;;;4972581;28;82703;-66
2023/04/05 08:51:25;;;;;;;1.70;1.10;;;12.70;59.60;12.90;101237.00;;;;4970879;28;82830;-67
2023/04/05 08:53:52;;;;;;;2.87;1.40;;;12.80;59.30;13.00;101243.00;;;;4971822;28;107288;-67
2023/04/05 08:56:24;;;;;;;1.83;1.00;;;13.00;59.20;13.10;101234.00;;;;4971157;28;100550;-67
2023/04/05 08:59:08;;;;;;;2.13;0.73;;;13.10;58.60;13.30;101237.00;;;;4971066;28;82750;-64
2023/04/05 09:01:43;;;;;;;2.07;0.97;;;13.20;58.20;13.40;101240.00;;;;4956812;28;84852;-70
2023/04/05 09:04:17;;;;;;;0.80;0.70;;;13.30;58.00;13.60;101231.00;;;;4983260;28;83899;-68
2023/04/05 09:06:44;;;;;;;1.20;1.00;;;13.50;57.80;13.80;101238.00;;;;4974079;28;82812;-64
2023/04/05 09:09:11;;;;;;;0.67;0.57;;;13.60;57.10;14.00;101241.00;;;;4967183;28;83569;-65
2023/04/05 09:11:37;;;;;;;1.07;0.60;;;13.80;57.10;14.20;101238.00;;;;4972405;28;82761;-62
2023/04/05 09:14:04;;;;;;;0.63;0.40;;;14.00;56.10;14.30;101235.00;;;;4972616;28;112557;-62
2023/04/05 09:16:37;;;;;;;0.50;0.50;;;14.20;53.90;14.30;101228.00;;;;4973553;28;83330;-62
2023/04/05 09:19:03;;;;;;;0.50;0.43;;;14.20;53.70;14.30;101239.00;;;;4973349;28;82851;-63
2023/04/05 09:21:28;;;;;;;1.75;0.60;;;14.20;52.60;14.20;101231.00;;;;4968944;28;101094;-62
2023/04/05 09:23:55;;;;;;;1.57;0.60;;;14.20;52.10;14.20;101237.00;;;;4981971;28;100815;-61
2023/04/05 09:26:23;;;;;;;1.40;0.30;;;14.20;51.90;14.20;101238.00;;;;4973223;28;83189;-64
2023/04/05 09:28:50;;;;;;;0.27;0.27;;;14.20;51.60;14.30;101233.00;;;;4975341;28;82743;-65
2023/04/05 09:31:33;;;;;;;0.70;0.47;;;14.20;51.20;14.20;101233.00;;;;4974492;28;82889;-63
2023/04/05 09:34:04;;;;;;;1.45;0.38;;;14.20;49.70;13.90;101228.00;;;;4966179;28;84834;-63
2023/04/05 09:36:33;;;;;;;0.77;0.63;;;14.00;48.90;13.80;101229.00;;;;4969043;28;84793;-66
2023/04/05 09:39:07;;;;;;;1.07;0.67;;;13.90;49.00;13.80;101236.00;;;;4971365;28;82714;-65
2023/04/05 09:41:34;;;;;;;0.60;0.32;;;13.80;49.10;13.90;101222.00;;;;4982218;28;82730;-63
2023/04/05 09:44:00;;;;;;;0.80;0.33;;;13.80;49.80;14.10;101239.00;;;;4971761;28;83529;-66
2023/04/05 09:46:40;;;;;;;1.17;0.70;;;13.90;49.50;14.30;101231.00;;;;4966968;28;84207;-65
2023/04/05 09:49:08;;;;;;;0.53;0.30;;;14.10;48.30;14.50;101226.00;;;;4973836;28;82701;-66
2023/04/05 09:51:38;;;;;;;1.23;0.33;;;14.30;48.50;14.70;101226.00;;;;4971343;28;82228;-67
2023/04/05 09:54:09;;;;;;;0.50;0.30;;;14.40;48.10;15.10;101221.00;;;;4971181;28;83880;-65
2023/04/05 09:56:38;;;;;;;0.73;0.53;;;14.70;48.30;15.40;101213.00;;;;4957908;28;94379;-64
2023/04/05 09:59:11;;;;;;;0.60;0.30;;;15.10;46.60;15.60;101217.00;;;;4972671;28;84385;-64
2023/04/05 10:01:42;;;;;;;0.63;0.63;;;15.30;45.90;15.60;101205.00;;;;4978891;28;93460;-65
2023/04/05 10:04:08;;;;;;;0.43;0.40;;;15.40;44.60;15.60;101213.00;;;;4951767;28;83322;-64
2023/04/05 10:06:39;;;;;;;0.90;0.60;;;15.40;44.90;15.90;101216.00;;;;4971927;28;111905;-65
2023/04/05 10:09:07;;;;;;;0.60;0.30;;;15.60;43.70;16.20;101210.00;;;;4968733;28;82556;-64
2023/04/05 10:11:37;;;;;;;0.17;0.17;;;15.80;44.30;16.60;101212.00;;;;4966966;28;82796;-63
2023/04/05 10:14:06;;;;;;;0.55;0.52;;;16.20;43.60;16.80;101206.00;;;;4971353;28;83641;-65
2023/04/05 10:17:09;;;;;;;0.52;0.40;;;16.40;41.60;16.90;101206.00;;;;4973110;28;82769;-64
2023/04/05 10:19:50;;;;;;;0.85;0.38;;;16.50;41.60;17.10;101215.00;;;;4936497;28;82742;-65
2023/04/05 10:22:24;;;;;;;1.30;0.52;;;16.70;42.00;17.10;101220.00;;;;4958309;28;82755;-66
2023/04/05 10:25:03;;;;;;;2.75;0.32;;;16.90;40.40;17.00;101215.00;;;;4949404;28;84020;-66
2023/04/05 10:27:52;;;;;;;0.43;0.43;;;16.80;40.20;16.90;101204.00;;;;4968415;28;105453;-64
2023/04/05 10:30:18;;;;;;;0.65;0.35;;;16.80;40.70;16.90;101206.00;;;;4964895;28;103489;-64
2023/04/05 10:33:26;;;;;;;0.30;0.30;;;16.70;40.60;17.00;101215.00;;;;4970613;28;108510;-65
2023/04/05 10:36:04;;;;;;;0.25;0.22;;;16.70;40.50;16.70;101216.00;;;;4950546;28;106882;-65
2023/04/05 10:38:46;;;;;;;2.50;0.30;;;16.50;39.60;16.30;101209.00;;;;4095174;28;10001100;-66
2023/04/05 10:41:15;;;;;;;0.75;0.40;;;16.30;39.80;15.70;101206.00;;;;4972909;28;83886;-65
2023/04/05 10:43:42;;;;;;;0.85;0.57;;;15.80;39.80;15.60;101197.00;;;;4973909;28;83794;-66
2023/04/05 10:46:10;;;;;;;0.30;0.30;;;15.50;40.90;15.50;101200.00;;;;4951194;28;82818;-65
2023/04/05 10:48:48;;;;;;;0.20;0.20;;;15.50;40.70;15.60;101203.00;;;;4971900;28;82654;-65
2023/04/05 10:51:14;;;;;;;0.40;0.30;;;15.40;41.30;15.90;101198.00;;;;4940338;28;84964;-65
2023/04/05 10:53:40;;;;;;;1.85;0.40;;;15.60;41.80;16.30;101199.00;;;;4954346;28;113164;-65
2023/04/05 10:56:07;;;;;;;0.85;0.60;;;15.90;41.80;16.70;101195.00;;;;4969310;28;82790;-66